sensor_id;sensor_type;location;lat;lon;timestamp;P1;durP1;ratioP1;P2;durP2;ratioP2
56401;SDS011;42299;35.160;26.100;2024-01-25T00:04:58;11.13;;;5.18;;
56401;SDS011;42299;35.160;26.100;2024-01-25T00:10:20;11.63;;;4.03;;
56401;SDS011;42299;35.160;26.100;2024-01-25T00:15:43;11.77;;;4.57;;
56401;SDS011;42299;35.160;26.100;2024-01-25T00:21:07;12.15;;;5.07;;
56401;SDS011;42299;35.160;26.100;2024-01-25T00:26:30;14.57;;;4.55;;
56401;SDS011;42299;35.160;26.100;2024-01-25T00:31:52;9.60;;;4.57;;
56401;SDS011;42299;35.160;26.100;2024-01-25T00:37:17;9.05;;;4.15;;
56401;SDS011;42299;35.160;26.100;2024-01-25T00:42:41;8.23;;;4.28;;
56401;SDS011;42299;35.160;26.100;2024-01-25T00:48:06;11.50;;;6.78;;
56401;SDS011;42299;35.160;26.100;2024-01-25T00:53:32;10.57;;;5.07;;
56401;SDS011;42299;35.160;26.100;2024-01-25T00:58:55;5.28;;;3.45;;
56401;SDS011;42299;35.160;26.100;2024-01-25T01:04:18;11.13;;;4.50;;
56401;SDS011;42299;35.160;26.100;2024-01-25T01:09:43;10.63;;;4.63;;
56401;SDS011;42299;35.160;26.100;2024-01-25T01:15:06;9.75;;;3.85;;
56401;SDS011;42299;35.160;26.100;2024-01-25T01:20:29;8.48;;;3.58;;
56401;SDS011;42299;35.160;26.100;2024-01-25T01:25:53;8.65;;;3.80;;
56401;SDS011;42299;35.160;26.100;2024-01-25T01:31:16;8.65;;;3.78;;
56401;SDS011;42299;35.160;26.100;2024-01-25T01:36:40;6.47;;;3.08;;
56401;SDS011;42299;35.160;26.100;2024-01-25T01:42:08;6.03;;;3.38;;
56401;SDS011;42299;35.160;26.100;2024-01-25T01:47:31;5.82;;;3.60;;
56401;SDS011;42299;35.160;26.100;2024-01-25T01:52:53;7.97;;;4.30;;
56401;SDS011;42299;35.160;26.100;2024-01-25T01:58:17;8.38;;;3.72;;
56401;SDS011;42299;35.160;26.100;2024-01-25T02:03:41;10.90;;;4.00;;
56401;SDS011;42299;35.160;26.100;2024-01-25T02:09:06;7.90;;;4.13;;
56401;SDS011;42299;35.160;26.100;2024-01-25T02:14:32;6.38;;;3.72;;
56401;SDS011;42299;35.160;26.100;2024-01-25T02:19:54;9.25;;;3.78;;
56401;SDS011;42299;35.160;26.100;2024-01-25T02:25:18;7.80;;;3.88;;
56401;SDS011;42299;35.160;26.100;2024-01-25T02:30:41;7.50;;;3.67;;
56401;SDS011;42299;35.160;26.100;2024-01-25T02:36:03;7.28;;;3.80;;
56401;SDS011;42299;35.160;26.100;2024-01-25T02:41:30;5.55;;;3.55;;
56401;SDS011;42299;35.160;26.100;2024-01-25T02:46:53;10.10;;;3.97;;
56401;SDS011;42299;35.160;26.100;2024-01-25T02:52:15;8.40;;;3.83;;
56401;SDS011;42299;35.160;26.100;2024-01-25T02:57:40;8.90;;;3.45;;
56401;SDS011;42299;35.160;26.100;2024-01-25T03:03:03;8.02;;;3.35;;
56401;SDS011;42299;35.160;26.100;2024-01-25T03:08:28;8.32;;;3.35;;
56401;SDS011;42299;35.160;26.100;2024-01-25T03:13:52;10.95;;;3.85;;
56401;SDS011;42299;35.160;26.100;2024-01-25T03:19:18;8.40;;;3.63;;
56401;SDS011;42299;35.160;26.100;2024-01-25T03:24:42;9.63;;;4.47;;
56401;SDS011;42299;35.160;26.100;2024-01-25T03:30:07;9.68;;;4.40;;
56401;SDS011;42299;35.160;26.100;2024-01-25T03:35:31;8.25;;;4.57;;
56401;SDS011;42299;35.160;26.100;2024-01-25T03:40:54;6.00;;;3.33;;
56401;SDS011;42299;35.160;26.100;2024-01-25T03:46:28;9.57;;;3.60;;
56401;SDS011;42299;35.160;26.100;2024-01-25T03:51:50;8.50;;;3.33;;
56401;SDS011;42299;35.160;26.100;2024-01-25T03:57:14;9.23;;;4.00;;
56401;SDS011;42299;35.160;26.100;2024-01-25T04:02:38;6.35;;;3.25;;
56401;SDS011;42299;35.160;26.100;2024-01-25T04:08:00;8.70;;;4.07;;
56401;SDS011;42299;35.160;26.100;2024-01-25T04:13:23;9.55;;;3.90;;
56401;SDS011;42299;35.160;26.100;2024-01-25T04:18:47;6.03;;;3.50;;
56401;SDS011;42299;35.160;26.100;2024-01-25T04:24:09;6.30;;;3.30;;
56401;SDS011;42299;35.160;26.100;2024-01-25T04:29:32;13.60;;;3.67;;
56401;SDS011;42299;35.160;26.100;2024-01-25T04:34:56;5.00;;;3.35;;
56401;SDS011;42299;35.160;26.100;2024-01-25T04:40:18;8.38;;;3.00;;
56401;SDS011;42299;35.160;26.100;2024-01-25T04:45:41;9.15;;;3.90;;
56401;SDS011;42299;35.160;26.100;2024-01-25T04:51:05;10.18;;;3.40;;
56401;SDS011;42299;35.160;26.100;2024-01-25T04:56:27;6.72;;;3.58;;
56401;SDS011;42299;35.160;26.100;2024-01-25T05:01:50;6.18;;;3.38;;
56401;SDS011;42299;35.160;26.100;2024-01-25T05:07:17;10.80;;;3.58;;
56401;SDS011;42299;35.160;26.100;2024-01-25T05:12:39;7.45;;;4.10;;
56401;SDS011;42299;35.160;26.100;2024-01-25T05:18:02;6.10;;;3.35;;
56401;SDS011;42299;35.160;26.100;2024-01-25T05:23:26;7.05;;;3.72;;
56401;SDS011;42299;35.160;26.100;2024-01-25T05:28:49;5.30;;;3.22;;
56401;SDS011;42299;35.160;26.100;2024-01-25T05:34:11;3.35;;;2.85;;
56401;SDS011;42299;35.160;26.100;2024-01-25T05:39:37;9.07;;;4.07;;
56401;SDS011;42299;35.160;26.100;2024-01-25T05:45:01;7.10;;;3.70;;
56401;SDS011;42299;35.160;26.100;2024-01-25T05:50:24;5.07;;;3.60;;
56401;SDS011;42299;35.160;26.100;2024-01-25T05:55:48;22.15;;;14.43;;
56401;SDS011;42299;35.160;26.100;2024-01-25T06:01:10;8.93;;;5.70;;
56401;SDS011;42299;35.160;26.100;2024-01-25T06:06:33;8.73;;;5.43;;
56401;SDS011;42299;35.160;26.100;2024-01-25T06:11:57;12.40;;;7.43;;
56401;SDS011;42299;35.160;26.100;2024-01-25T06:17:22;6.65;;;5.03;;
56401;SDS011;42299;35.160;26.100;2024-01-25T06:22:45;9.75;;;5.30;;
56401;SDS011;42299;35.160;26.100;2024-01-25T06:28:20;8.38;;;4.93;;
56401;SDS011;42299;35.160;26.100;2024-01-25T06:33:42;26.80;;;15.35;;
56401;SDS011;42299;35.160;26.100;2024-01-25T06:39:07;22.38;;;12.85;;
56401;SDS011;42299;35.160;26.100;2024-01-25T06:44:31;15.32;;;9.25;;
56401;SDS011;42299;35.160;26.100;2024-01-25T06:49:54;24.67;;;17.50;;
56401;SDS011;42299;35.160;26.100;2024-01-25T06:55:17;17.90;;;11.77;;
56401;SDS011;42299;35.160;26.100;2024-01-25T07:00:40;20.05;;;16.40;;
56401;SDS011;42299;35.160;26.100;2024-01-25T07:06:05;10.75;;;7.97;;
56401;SDS011;42299;35.160;26.100;2024-01-25T07:11:28;9.25;;;5.30;;
56401;SDS011;42299;35.160;26.100;2024-01-25T07:16:53;7.45;;;4.60;;
56401;SDS011;42299;35.160;26.100;2024-01-25T07:22:18;9.75;;;6.18;;
56401;SDS011;42299;35.160;26.100;2024-01-25T07:27:43;7.38;;;4.15;;
56401;SDS011;42299;35.160;26.100;2024-01-25T07:33:14;7.32;;;4.55;;
56401;SDS011;42299;35.160;26.100;2024-01-25T07:38:37;9.73;;;5.35;;
56401;SDS011;42299;35.160;26.100;2024-01-25T07:44:00;10.23;;;4.30;;
56401;SDS011;42299;35.160;26.100;2024-01-25T07:49:25;9.23;;;6.07;;
56401;SDS011;42299;35.160;26.100;2024-01-25T07:54:48;11.80;;;5.53;;
56401;SDS011;42299;35.160;26.100;2024-01-25T08:00:10;7.10;;;4.20;;
56401;SDS011;42299;35.160;26.100;2024-01-25T08:05:35;11.55;;;6.10;;
56401;SDS011;42299;35.160;26.100;2024-01-25T08:10:57;20.27;;;13.57;;
56401;SDS011;42299;35.160;26.100;2024-01-25T08:16:20;16.83;;;7.15;;
56401;SDS011;42299;35.160;26.100;2024-01-25T08:21:44;9.60;;;6.95;;
56401;SDS011;42299;35.160;26.100;2024-01-25T08:27:07;10.48;;;5.88;;
56401;SDS011;42299;35.160;26.100;2024-01-25T08:32:30;8.27;;;5.25;;
56401;SDS011;42299;35.160;26.100;2024-01-25T08:37:58;10.13;;;4.75;;
56401;SDS011;42299;35.160;26.100;2024-01-25T08:43:20;6.63;;;4.50;;
56401;SDS011;42299;35.160;26.100;2024-01-25T08:48:43;7.80;;;3.60;;
56401;SDS011;42299;35.160;26.100;2024-01-25T08:54:08;19.63;;;12.00;;
56401;SDS011;42299;35.160;26.100;2024-01-25T08:59:36;24.05;;;15.25;;
56401;SDS011;42299;35.160;26.100;2024-01-25T09:04:59;18.92;;;12.15;;
56401;SDS011;42299;35.160;26.100;2024-01-25T09:10:26;7.30;;;3.55;;
56401;SDS011;42299;35.160;26.100;2024-01-25T09:15:50;6.35;;;4.70;;
56401;SDS011;42299;35.160;26.100;2024-01-25T09:21:15;3.95;;;2.63;;
56401;SDS011;42299;35.160;26.100;2024-01-25T09:26:40;3.65;;;3.03;;
56401;SDS011;42299;35.160;26.100;2024-01-25T09:32:04;5.80;;;2.78;;
56401;SDS011;42299;35.160;26.100;2024-01-25T09:37:36;5.63;;;4.00;;
56401;SDS011;42299;35.160;26.100;2024-01-25T09:43:01;5.85;;;2.65;;
56401;SDS011;42299;35.160;26.100;2024-01-25T09:48:23;6.20;;;3.45;;
56401;SDS011;42299;35.160;26.100;2024-01-25T09:53:47;9.68;;;3.95;;
56401;SDS011;42299;35.160;26.100;2024-01-25T09:59:12;6.45;;;3.38;;
56401;SDS011;42299;35.160;26.100;2024-01-25T10:04:35;12.13;;;6.68;;
56401;SDS011;42299;35.160;26.100;2024-01-25T10:09:57;4.97;;;2.80;;
56401;SDS011;42299;35.160;26.100;2024-01-25T10:15:21;4.57;;;2.97;;
56401;SDS011;42299;35.160;26.100;2024-01-25T10:20:45;3.45;;;2.67;;
56401;SDS011;42299;35.160;26.100;2024-01-25T10:26:08;6.28;;;3.22;;
56401;SDS011;42299;35.160;26.100;2024-01-25T10:31:37;4.30;;;3.60;;
56401;SDS011;42299;35.160;26.100;2024-01-25T10:37:01;4.00;;;3.45;;
56401;SDS011;42299;35.160;26.100;2024-01-25T10:42:25;5.75;;;3.38;;
56401;SDS011;42299;35.160;26.100;2024-01-25T10:47:49;5.90;;;2.90;;
56401;SDS011;42299;35.160;26.100;2024-01-25T10:53:12;4.15;;;2.70;;
56401;SDS011;42299;35.160;26.100;2024-01-25T10:58:40;5.35;;;3.67;;
56401;SDS011;42299;35.160;26.100;2024-01-25T11:04:11;5.65;;;3.22;;
56401;SDS011;42299;35.160;26.100;2024-01-25T11:09:37;4.63;;;2.80;;
56401;SDS011;42299;35.160;26.100;2024-01-25T11:15:06;4.85;;;3.38;;
56401;SDS011;42299;35.160;26.100;2024-01-25T11:20:33;7.30;;;5.22;;
56401;SDS011;42299;35.160;26.100;2024-01-25T11:25:58;3.63;;;2.80;;
56401;SDS011;42299;35.160;26.100;2024-01-25T11:31:22;7.32;;;4.45;;
56401;SDS011;42299;35.160;26.100;2024-01-25T11:37:04;3.50;;;2.65;;
56401;SDS011;42299;35.160;26.100;2024-01-25T11:43:20;3.63;;;2.28;;
56401;SDS011;42299;35.160;26.100;2024-01-25T11:48:44;7.07;;;4.25;;
56401;SDS011;42299;35.160;26.100;2024-01-25T11:54:10;3.70;;;2.90;;
56401;SDS011;42299;35.160;26.100;2024-01-25T11:59:35;5.28;;;2.50;;
56401;SDS011;42299;35.160;26.100;2024-01-25T12:05:01;10.73;;;5.05;;
56401;SDS011;42299;35.160;26.100;2024-01-25T12:10:27;4.10;;;2.42;;
56401;SDS011;42299;35.160;26.100;2024-01-25T12:15:49;6.63;;;3.22;;
56401;SDS011;42299;35.160;26.100;2024-01-25T12:21:16;5.68;;;2.88;;
56401;SDS011;42299;35.160;26.100;2024-01-25T12:26:45;9.23;;;5.60;;
56401;SDS011;42299;35.160;26.100;2024-01-25T12:32:12;6.00;;;4.10;;
56401;SDS011;42299;35.160;26.100;2024-01-25T12:37:34;24.67;;;16.15;;
56401;SDS011;42299;35.160;26.100;2024-01-25T12:42:58;11.85;;;9.60;;
56401;SDS011;42299;35.160;26.100;2024-01-25T12:48:21;12.07;;;7.25;;
56401;SDS011;42299;35.160;26.100;2024-01-25T12:53:43;24.02;;;13.40;;
56401;SDS011;42299;35.160;26.100;2024-01-25T12:59:07;17.65;;;9.93;;
56401;SDS011;42299;35.160;26.100;2024-01-25T13:04:37;11.50;;;6.80;;
56401;SDS011;42299;35.160;26.100;2024-01-25T13:10:08;12.10;;;6.93;;
56401;SDS011;42299;35.160;26.100;2024-01-25T13:15:36;15.32;;;8.38;;
56401;SDS011;42299;35.160;26.100;2024-01-25T13:21:03;9.43;;;5.72;;
56401;SDS011;42299;35.160;26.100;2024-01-25T13:26:27;36.63;;;20.45;;
56401;SDS011;42299;35.160;26.100;2024-01-25T13:32:03;22.52;;;14.05;;
56401;SDS011;42299;35.160;26.100;2024-01-25T13:37:31;6.97;;;5.30;;
56401;SDS011;42299;35.160;26.100;2024-01-25T13:43:00;5.60;;;3.97;;
56401;SDS011;42299;35.160;26.100;2024-01-25T13:48:24;7.38;;;4.20;;
56401;SDS011;42299;35.160;26.100;2024-01-25T13:53:47;8.77;;;5.50;;
56401;SDS011;42299;35.160;26.100;2024-01-25T13:59:10;8.55;;;4.53;;
56401;SDS011;42299;35.160;26.100;2024-01-25T14:04:34;3.50;;;2.80;;
56401;SDS011;42299;35.160;26.100;2024-01-25T14:09:56;4.97;;;2.75;;
56401;SDS011;42299;35.160;26.100;2024-01-25T14:15:19;6.43;;;2.75;;
56401;SDS011;42299;35.160;26.100;2024-01-25T14:20:43;5.07;;;3.50;;
56401;SDS011;42299;35.160;26.100;2024-01-25T14:26:05;5.82;;;3.72;;
56401;SDS011;42299;35.160;26.100;2024-01-25T14:31:30;5.82;;;3.40;;
56401;SDS011;42299;35.160;26.100;2024-01-25T14:36:54;5.53;;;3.00;;
56401;SDS011;42299;35.160;26.100;2024-01-25T14:42:16;11.20;;;5.22;;
56401;SDS011;42299;35.160;26.100;2024-01-25T14:47:41;6.07;;;3.83;;
56401;SDS011;42299;35.160;26.100;2024-01-25T14:53:05;8.13;;;4.40;;
56401;SDS011;42299;35.160;26.100;2024-01-25T14:58:33;15.65;;;8.48;;
56401;SDS011;42299;35.160;26.100;2024-01-25T15:03:57;12.00;;;8.90;;
56401;SDS011;42299;35.160;26.100;2024-01-25T15:09:21;7.20;;;4.00;;
56401;SDS011;42299;35.160;26.100;2024-01-25T15:14:44;11.32;;;9.40;;
56401;SDS011;42299;35.160;26.100;2024-01-25T15:20:07;6.68;;;4.93;;
56401;SDS011;42299;35.160;26.100;2024-01-25T15:25:32;7.00;;;4.60;;
56401;SDS011;42299;35.160;26.100;2024-01-25T15:30:55;8.43;;;5.78;;
56401;SDS011;42299;35.160;26.100;2024-01-25T15:36:18;9.77;;;5.20;;
56401;SDS011;42299;35.160;26.100;2024-01-25T15:41:45;9.02;;;5.93;;
56401;SDS011;42299;35.160;26.100;2024-01-25T15:47:10;14.57;;;11.07;;
56401;SDS011;42299;35.160;26.100;2024-01-25T15:52:37;15.97;;;10.87;;
56401;SDS011;42299;35.160;26.100;2024-01-25T15:58:05;13.00;;;8.55;;
56401;SDS011;42299;35.160;26.100;2024-01-25T16:03:29;12.07;;;8.87;;
56401;SDS011;42299;35.160;26.100;2024-01-25T16:08:51;14.52;;;10.35;;
56401;SDS011;42299;35.160;26.100;2024-01-25T16:14:19;13.85;;;9.93;;
56401;SDS011;42299;35.160;26.100;2024-01-25T16:19:42;13.57;;;12.05;;
56401;SDS011;42299;35.160;26.100;2024-01-25T16:25:04;42.60;;;35.88;;
56401;SDS011;42299;35.160;26.100;2024-01-25T16:30:29;28.30;;;21.10;;
56401;SDS011;42299;35.160;26.100;2024-01-25T16:35:51;13.80;;;11.90;;
56401;SDS011;42299;35.160;26.100;2024-01-25T16:41:13;23.52;;;12.93;;
56401;SDS011;42299;35.160;26.100;2024-01-25T16:46:37;10.63;;;7.80;;
56401;SDS011;42299;35.160;26.100;2024-01-25T16:52:00;11.10;;;8.32;;
56401;SDS011;42299;35.160;26.100;2024-01-25T16:57:23;8.85;;;5.15;;
56401;SDS011;42299;35.160;26.100;2024-01-25T17:02:47;17.58;;;12.65;;
56401;SDS011;42299;35.160;26.100;2024-01-25T17:08:09;10.95;;;8.30;;
56401;SDS011;42299;35.160;26.100;2024-01-25T17:13:32;7.95;;;7.15;;
56401;SDS011;42299;35.160;26.100;2024-01-25T17:18:56;14.02;;;12.63;;
56401;SDS011;42299;35.160;26.100;2024-01-25T17:24:19;15.07;;;12.85;;
56401;SDS011;42299;35.160;26.100;2024-01-25T17:29:42;15.30;;;13.70;;
56401;SDS011;42299;35.160;26.100;2024-01-25T17:35:06;17.25;;;13.85;;
56401;SDS011;42299;35.160;26.100;2024-01-25T17:40:29;16.85;;;13.00;;
56401;SDS011;42299;35.160;26.100;2024-01-25T17:45:51;17.60;;;13.13;;
56401;SDS011;42299;35.160;26.100;2024-01-25T17:51:15;36.33;;;26.63;;
56401;SDS011;42299;35.160;26.100;2024-01-25T17:56:38;19.88;;;15.95;;
56401;SDS011;42299;35.160;26.100;2024-01-25T18:02:01;30.70;;;22.38;;
56401;SDS011;42299;35.160;26.100;2024-01-25T18:07:28;23.75;;;20.88;;
56401;SDS011;42299;35.160;26.100;2024-01-25T18:12:50;13.05;;;8.90;;
56401;SDS011;42299;35.160;26.100;2024-01-25T18:18:13;14.18;;;11.10;;
56401;SDS011;42299;35.160;26.100;2024-01-25T18:23:38;17.67;;;13.68;;
56401;SDS011;42299;35.160;26.100;2024-01-25T18:29:00;12.40;;;9.10;;
56401;SDS011;42299;35.160;26.100;2024-01-25T18:34:23;14.23;;;11.23;;
56401;SDS011;42299;35.160;26.100;2024-01-25T18:39:47;15.80;;;11.18;;
56401;SDS011;42299;35.160;26.100;2024-01-25T18:45:09;32.00;;;22.85;;
56401;SDS011;42299;35.160;26.100;2024-01-25T18:50:32;19.20;;;14.77;;
56401;SDS011;42299;35.160;26.100;2024-01-25T18:55:57;22.42;;;16.08;;
56401;SDS011;42299;35.160;26.100;2024-01-25T19:01:20;12.50;;;11.20;;
56401;SDS011;42299;35.160;26.100;2024-01-25T19:06:43;28.80;;;23.73;;
56401;SDS011;42299;35.160;26.100;2024-01-25T19:12:13;20.25;;;17.17;;
56401;SDS011;42299;35.160;26.100;2024-01-25T19:17:35;20.92;;;17.08;;
56401;SDS011;42299;35.160;26.100;2024-01-25T19:22:57;14.95;;;12.57;;
56401;SDS011;42299;35.160;26.100;2024-01-25T19:28:21;10.18;;;7.10;;
56401;SDS011;42299;35.160;26.100;2024-01-25T19:33:44;17.30;;;12.75;;
56401;SDS011;42299;35.160;26.100;2024-01-25T19:39:07;12.18;;;10.45;;
56401;SDS011;42299;35.160;26.100;2024-01-25T19:44:31;17.48;;;10.82;;
56401;SDS011;42299;35.160;26.100;2024-01-25T19:49:54;15.65;;;12.18;;
56401;SDS011;42299;35.160;26.100;2024-01-25T19:55:16;13.07;;;10.25;;
56401;SDS011;42299;35.160;26.100;2024-01-25T20:00:40;10.52;;;7.70;;
56401;SDS011;42299;35.160;26.100;2024-01-25T20:11:36;8.90;;;6.68;;
56401;SDS011;42299;35.160;26.100;2024-01-25T20:17:00;10.23;;;9.32;;
56401;SDS011;42299;35.160;26.100;2024-01-25T20:22:23;23.88;;;15.30;;
56401;SDS011;42299;35.160;26.100;2024-01-25T20:27:46;10.35;;;7.30;;
56401;SDS011;42299;35.160;26.100;2024-01-25T20:33:10;33.90;;;25.00;;
56401;SDS011;42299;35.160;26.100;2024-01-25T20:38:32;22.73;;;17.83;;
56401;SDS011;42299;35.160;26.100;2024-01-25T20:43:55;16.17;;;9.63;;
56401;SDS011;42299;35.160;26.100;2024-01-25T20:49:21;7.88;;;5.40;;
56401;SDS011;42299;35.160;26.100;2024-01-25T20:54:44;8.93;;;6.45;;
56401;SDS011;42299;35.160;26.100;2024-01-25T21:00:07;13.27;;;6.93;;
56401;SDS011;42299;35.160;26.100;2024-01-25T21:05:33;11.13;;;5.97;;
56401;SDS011;42299;35.160;26.100;2024-01-25T21:10:56;10.25;;;7.28;;
56401;SDS011;42299;35.160;26.100;2024-01-25T21:16:19;8.30;;;5.55;;
56401;SDS011;42299;35.160;26.100;2024-01-25T21:21:43;6.15;;;4.45;;
56401;SDS011;42299;35.160;26.100;2024-01-25T21:27:06;6.32;;;4.60;;
56401;SDS011;42299;35.160;26.100;2024-01-25T21:32:28;18.85;;;7.28;;
56401;SDS011;42299;35.160;26.100;2024-01-25T21:37:53;5.60;;;3.65;;
56401;SDS011;42299;35.160;26.100;2024-01-25T21:43:16;9.90;;;5.00;;
56401;SDS011;42299;35.160;26.100;2024-01-25T21:48:38;10.07;;;6.88;;
56401;SDS011;42299;35.160;26.100;2024-01-25T21:54:03;25.92;;;16.80;;
56401;SDS011;42299;35.160;26.100;2024-01-25T21:59:25;10.60;;;5.65;;
56401;SDS011;42299;35.160;26.100;2024-01-25T22:04:48;10.98;;;6.35;;
56401;SDS011;42299;35.160;26.100;2024-01-25T22:10:12;6.05;;;4.50;;
56401;SDS011;42299;35.160;26.100;2024-01-25T22:15:34;11.02;;;7.60;;
56401;SDS011;42299;35.160;26.100;2024-01-25T22:20:56;23.58;;;13.88;;
56401;SDS011;42299;35.160;26.100;2024-01-25T22:26:20;6.05;;;4.68;;
56401;SDS011;42299;35.160;26.100;2024-01-25T22:31:46;4.50;;;3.38;;
56401;SDS011;42299;35.160;26.100;2024-01-25T22:37:08;7.55;;;4.07;;
56401;SDS011;42299;35.160;26.100;2024-01-25T22:42:32;7.63;;;4.80;;
56401;SDS011;42299;35.160;26.100;2024-01-25T22:47:55;6.65;;;4.93;;
56401;SDS011;42299;35.160;26.100;2024-01-25T22:53:19;7.30;;;5.13;;
56401;SDS011;42299;35.160;26.100;2024-01-25T22:58:43;4.25;;;3.20;;
56401;SDS011;42299;35.160;26.100;2024-01-25T23:04:06;12.48;;;7.45;;
56401;SDS011;42299;35.160;26.100;2024-01-25T23:09:28;5.18;;;4.00;;
56401;SDS011;42299;35.160;26.100;2024-01-25T23:14:52;14.40;;;11.23;;
56401;SDS011;42299;35.160;26.100;2024-01-25T23:20:15;4.50;;;3.65;;
56401;SDS011;42299;35.160;26.100;2024-01-25T23:25:37;6.70;;;4.00;;
56401;SDS011;42299;35.160;26.100;2024-01-25T23:31:02;9.00;;;5.57;;
56401;SDS011;42299;35.160;26.100;2024-01-25T23:36:25;10.15;;;6.60;;
56401;SDS011;42299;35.160;26.100;2024-01-25T23:41:48;7.03;;;4.95;;
56401;SDS011;42299;35.160;26.100;2024-01-25T23:47:12;4.70;;;3.08;;
56401;SDS011;42299;35.160;26.100;2024-01-25T23:52:35;5.70;;;3.50;;
56401;SDS011;42299;35.160;26.100;2024-01-25T23:57:57;4.93;;;3.25;;
